Time;durP1;ratioP1;P1;durP2;ratioP2;P2;SDS_P1;SDS_P2;PMS_P1;PMS_P2;Temp;Humidity;BMP_temperature;BMP_pressure;BME280_temperature;BME280_humidity;BME280_pressure;Samples;Min_cycle;Max_cycle;Signal;HPM_P1;HPM_P2
2022/11/10 00:02:13;;;;;;;16.83;5.20;;;9.90;99.90;;;;;;5109203;28;20463;-74
2022/11/10 00:04:39;;;;;;;13.20;5.30;;;9.90;99.90;;;;;;5092305;27;20397;-74
2022/11/10 00:07:04;;;;;;;18.13;5.80;;;9.80;99.90;;;;;;5111191;27;20395;-75
2022/11/10 00:09:30;;;;;;;13.23;5.60;;;9.80;99.90;;;;;;5124560;27;20410;-74
2022/11/10 00:11:56;;;;;;;14.63;5.40;;;9.80;99.90;;;;;;5094551;28;20496;-74
2022/11/10 00:17:05;;;;;;;12.45;4.00;;;9.70;99.90;;;;;;5110747;27;21199;-74
2022/11/10 00:19:32;;;;;;;13.17;3.73;;;9.60;99.90;;;;;;5109742;27;20483;-74
2022/11/10 00:22:00;;;;;;;10.23;3.17;;;9.60;99.90;;;;;;5127635;27;20429;-74
2022/11/10 00:24:27;;;;;;;13.90;3.17;;;9.50;99.90;;;;;;5117048;27;20396;-74
2022/11/10 00:26:53;;;;;;;10.73;3.00;;;9.50;99.90;;;;;;5109813;27;20402;-74
2022/11/10 00:29:20;;;;;;;10.80;2.40;;;9.50;99.90;;;;;;5130063;27;20458;-75
2022/11/10 00:31:45;;;;;;;10.38;2.20;;;9.40;99.90;;;;;;5111130;27;20462;-74
2022/11/10 00:34:15;;;;;;;12.65;2.40;;;9.40;99.90;;;;;;5126202;27;20443;-74
2022/11/10 00:36:42;;;;;;;16.00;2.60;;;9.40;99.90;;;;;;5074368;28;20479;-75
2022/11/10 00:39:08;;;;;;;13.53;2.67;;;9.30;99.90;;;;;;5118089;27;20819;-74
2022/11/10 00:41:34;;;;;;;14.05;2.28;;;9.30;99.90;;;;;;5100775;28;20416;-75
2022/11/10 00:44:00;;;;;;;14.53;2.70;;;9.30;99.90;;;;;;5106217;27;20888;-74
2022/11/10 00:46:26;;;;;;;11.85;3.05;;;9.30;99.90;;;;;;5107668;28;20400;-74
2022/11/10 00:48:51;;;;;;;14.45;2.70;;;9.30;99.90;;;;;;5104564;28;21176;-74
2022/11/10 00:51:22;;;;;;;11.30;2.87;;;9.30;99.90;;;;;;5101448;27;20552;-74
2022/11/10 00:53:48;;;;;;;15.68;3.10;;;9.30;99.90;;;;;;5089857;28;20447;-74
2022/11/10 00:56:14;;;;;;;12.02;3.22;;;9.30;99.90;;;;;;5124098;27;20403;-74
2022/11/10 00:58:40;;;;;;;12.68;3.00;;;9.40;99.90;;;;;;5110567;27;20452;-74
2022/11/10 01:01:06;;;;;;;17.63;3.28;;;9.50;99.90;;;;;;5107736;28;20575;-74
2022/11/10 01:03:32;;;;;;;13.43;2.70;;;9.50;99.90;;;;;;5107792;28;20506;-74
2022/11/10 01:06:02;;;;;;;14.13;3.10;;;9.50;99.90;;;;;;5120651;27;20399;-74
2022/11/10 01:08:28;;;;;;;18.23;3.58;;;9.50;99.90;;;;;;5106729;28;20403;-74
2022/11/10 01:11:03;;;;;;;16.27;3.10;;;9.40;99.90;;;;;;5110484;27;20776;-74
2022/11/10 01:13:30;;;;;;;15.38;3.03;;;9.50;99.90;;;;;;5129406;27;20394;-74
2022/11/10 01:15:55;;;;;;;16.50;2.85;;;9.50;99.90;;;;;;5127285;27;20395;-75
2022/11/10 01:18:21;;;;;;;14.50;3.37;;;9.40;99.90;;;;;;5128888;27;20397;-74
2022/11/10 01:20:51;;;;;;;14.13;3.00;;;9.50;99.90;;;;;;5107353;28;20886;-75
2022/11/10 01:23:17;;;;;;;16.05;3.33;;;9.50;99.90;;;;;;5124755;27;20459;-74
2022/11/10 01:25:43;;;;;;;17.80;3.70;;;9.50;99.90;;;;;;5094371;28;20896;-75
2022/11/10 01:28:09;;;;;;;17.02;3.40;;;9.50;99.90;;;;;;5078884;28;20401;-74
2022/11/10 01:30:35;;;;;;;17.33;3.17;;;9.50;99.90;;;;;;5089817;28;20434;-74
2022/11/10 01:33:00;;;;;;;17.63;3.23;;;9.50;99.90;;;;;;5106806;28;20926;-74
2022/11/10 01:35:26;;;;;;;16.38;3.67;;;9.50;99.90;;;;;;5111496;28;20410;-74
2022/11/10 01:37:52;;;;;;;19.67;3.63;;;9.50;99.90;;;;;;5110703;28;20459;-75
2022/11/10 01:40:19;;;;;;;18.55;3.72;;;9.40;99.90;;;;;;5106905;28;20432;-74
2022/11/10 01:42:51;;;;;;;16.65;4.30;;;9.40;99.90;;;;;;5112616;28;20405;-74
2022/11/10 01:45:23;;;;;;;16.08;3.60;;;9.40;99.90;;;;;;5096343;28;20415;-74
2022/11/10 01:47:56;;;;;;;20.07;3.90;;;9.30;99.90;;;;;;5125297;28;20430;-74
2022/11/10 01:50:25;;;;;;;20.55;4.55;;;9.30;99.90;;;;;;5102468;28;20424;-74
2022/11/10 01:52:54;;;;;;;18.27;4.40;;;9.30;99.90;;;;;;5119921;28;20501;-74
2022/11/10 01:55:21;;;;;;;22.90;4.57;;;9.30;99.90;;;;;;5109948;28;20460;-74
2022/11/10 01:57:47;;;;;;;21.05;4.45;;;9.30;99.90;;;;;;5119928;28;20406;-74
2022/11/10 02:00:13;;;;;;;18.87;3.87;;;9.30;99.90;;;;;;5089135;28;20758;-74
2022/11/10 02:02:50;;;;;;;20.98;4.38;;;9.30;99.90;;;;;;5104976;28;20396;-74
2022/11/10 02:05:15;;;;;;;20.40;4.72;;;9.30;99.90;;;;;;5100229;28;20900;-74
2022/11/10 02:07:42;;;;;;;18.80;4.60;;;9.30;99.90;;;;;;5128988;28;20415;-74
2022/11/10 02:10:19;;;;;;;22.05;4.53;;;9.30;99.90;;;;;;5103244;28;20479;-74
2022/11/10 02:12:46;;;;;;;16.60;3.85;;;9.30;99.90;;;;;;5109978;27;20941;-74
2022/11/10 02:15:16;;;;;;;23.10;4.68;;;9.30;99.90;;;;;;5094669;27;20413;-74
2022/11/10 02:17:42;;;;;;;22.17;4.60;;;9.30;99.90;;;;;;5131694;27;20391;-74
2022/11/10 02:20:11;;;;;;;18.73;4.63;;;9.30;99.90;;;;;;5118565;27;20401;-74
2022/11/10 02:22:37;;;;;;;20.47;4.60;;;9.30;99.90;;;;;;5121504;27;20397;-74
2022/11/10 02:25:04;;;;;;;17.83;5.10;;;9.30;99.90;;;;;;5118650;27;20439;-74
2022/11/10 02:27:30;;;;;;;18.40;4.87;;;9.30;99.90;;;;;;5119641;27;20415;-74
2022/11/10 02:29:56;;;;;;;20.37;5.13;;;9.30;99.90;;;;;;5126199;27;20446;-74
2022/11/10 02:32:22;;;;;;;19.15;5.60;;;9.40;99.90;;;;;;5129168;27;20432;-74
2022/11/10 02:34:48;;;;;;;19.87;5.47;;;9.40;99.90;;;;;;5120259;27;20395;-74
2022/11/10 02:37:14;;;;;;;19.02;6.03;;;9.40;99.90;;;;;;5110596;28;20496;-74
2022/11/10 02:39:40;;;;;;;19.42;5.82;;;9.40;99.90;;;;;;5123994;27;20394;-74
2022/11/10 02:42:09;;;;;;;23.20;5.95;;;9.40;99.90;;;;;;5131371;27;20411;-74
2022/11/10 02:44:39;;;;;;;18.98;5.55;;;9.40;99.90;;;;;;5110433;28;20499;-74
2022/11/10 02:47:06;;;;;;;22.10;6.55;;;9.40;99.90;;;;;;5130714;27;20426;-74
2022/11/10 02:49:32;;;;;;;23.15;6.00;;;9.40;99.90;;;;;;5132280;27;20410;-74
2022/11/10 02:51:57;;;;;;;20.02;6.15;;;9.40;99.90;;;;;;5089699;27;20414;-74
2022/11/10 02:54:23;;;;;;;21.27;6.35;;;9.40;99.90;;;;;;5109730;28;20400;-74
2022/11/10 02:56:49;;;;;;;22.38;6.45;;;9.40;99.90;;;;;;5131358;27;20469;-74
2022/11/10 02:59:14;;;;;;;20.40;5.90;;;9.40;99.90;;;;;;5125895;27;20480;-74
2022/11/10 03:01:40;;;;;;;21.13;6.30;;;9.40;99.90;;;;;;5100705;27;20406;-74
2022/11/10 03:04:06;;;;;;;21.70;6.17;;;9.30;99.90;;;;;;5131802;27;20398;-74
2022/11/10 03:06:32;;;;;;;20.05;6.40;;;9.40;99.90;;;;;;5131824;27;20500;-74
2022/11/10 03:08:58;;;;;;;19.40;6.30;;;9.40;99.90;;;;;;5124121;27;21081;-74
2022/11/10 03:11:24;;;;;;;20.30;6.65;;;9.40;99.90;;;;;;5118178;27;20451;-74
2022/11/10 03:13:50;;;;;;;22.95;6.55;;;9.40;99.90;;;;;;5084817;28;20436;-74
2022/11/10 03:16:15;;;;;;;23.50;6.20;;;9.40;99.90;;;;;;5093890;28;20412;-74
2022/11/10 03:18:41;;;;;;;24.57;6.33;;;9.40;99.90;;;;;;5129114;27;20395;-74
2022/11/10 03:21:07;;;;;;;22.20;6.70;;;9.30;99.90;;;;;;5112166;27;20403;-74
2022/11/10 03:23:33;;;;;;;22.35;6.20;;;9.30;99.90;;;;;;5102019;28;20416;-74
2022/11/10 03:26:02;;;;;;;20.73;6.65;;;9.30;99.90;;;;;;5106428;28;20409;-74
2022/11/10 03:28:27;;;;;;;21.25;6.72;;;9.30;99.90;;;;;;5123845;27;20391;-74
2022/11/10 03:30:53;;;;;;;24.85;6.90;;;9.30;99.90;;;;;;5130913;27;20422;-74
2022/11/10 03:33:18;;;;;;;21.80;7.13;;;9.30;99.90;;;;;;5130523;27;20402;-74
2022/11/10 03:35:44;;;;;;;25.02;6.88;;;9.30;99.90;;;;;;5091676;28;20403;-74
2022/11/10 03:38:09;;;;;;;21.90;6.90;;;9.30;99.90;;;;;;5112593;27;20544;-74
2022/11/10 03:40:35;;;;;;;25.92;6.90;;;9.40;99.90;;;;;;5117239;27;20965;-74
2022/11/10 03:43:01;;;;;;;26.10;7.10;;;9.30;99.90;;;;;;5093858;28;20400;-74
2022/11/10 03:45:26;;;;;;;22.80;6.93;;;9.30;99.90;;;;;;5130012;27;20418;-74
2022/11/10 03:47:52;;;;;;;22.57;6.23;;;9.30;99.90;;;;;;5130934;27;20524;-74
2022/11/10 03:50:18;;;;;;;25.03;6.60;;;9.30;99.90;;;;;;5129699;27;20415;-74
2022/11/10 03:52:44;;;;;;;22.30;7.03;;;9.30;99.90;;;;;;5109496;28;20411;-74
2022/11/10 03:55:13;;;;;;;25.47;7.00;;;9.30;99.90;;;;;;5129325;27;20479;-74
2022/11/10 03:57:38;;;;;;;19.75;6.63;;;9.30;99.90;;;;;;5117862;27;20408;-74
2022/11/10 04:00:05;;;;;;;27.77;7.00;;;9.30;99.90;;;;;;5129534;27;20399;-74
2022/11/10 04:02:30;;;;;;;23.05;7.00;;;9.30;99.90;;;;;;5127601;27;20391;-74
2022/11/10 04:10:24;;;;;;;24.05;6.65;;;9.30;99.90;;;;;;5127907;27;20427;-74
2022/11/10 04:15:42;;;;;;;22.87;6.90;;;9.30;99.90;;;;;;5087872;27;20440;-74
2022/11/10 04:18:24;;;;;;;23.38;6.43;;;9.30;99.90;;;;;;5128852;27;20506;-74
2022/11/10 04:20:59;;;;;;;24.35;7.15;;;9.40;99.90;;;;;;5128147;27;20949;-74
2022/11/10 04:23:27;;;;;;;22.10;5.95;;;9.30;99.90;;;;;;5129382;27;20407;-74
2022/11/10 04:28:54;;;;;;;23.45;7.00;;;9.40;99.90;;;;;;5127809;27;20452;-74
2022/11/10 04:31:21;;;;;;;22.42;6.35;;;9.40;99.90;;;;;;5110443;27;21353;-74
2022/11/10 04:33:48;;;;;;;23.27;6.50;;;9.40;99.90;;;;;;5126758;27;20794;-74
2022/11/10 04:36:19;;;;;;;23.60;6.28;;;9.40;99.90;;;;;;5119290;27;20421;-74
2022/11/10 04:38:46;;;;;;;22.88;6.63;;;9.40;99.90;;;;;;5101675;27;20745;-74
2022/11/10 04:41:12;;;;;;;24.73;6.97;;;9.30;99.90;;;;;;5117423;27;20909;-74
2022/11/10 04:43:38;;;;;;;27.13;6.32;;;9.30;99.90;;;;;;5126847;27;20399;-74
2022/11/10 04:46:05;;;;;;;26.60;7.40;;;9.30;99.90;;;;;;5110660;27;20512;-74
2022/11/10 04:48:32;;;;;;;26.95;6.60;;;9.30;99.90;;;;;;5116457;27;20398;-74
2022/11/10 04:51:03;;;;;;;23.02;6.85;;;9.30;99.90;;;;;;5100321;28;20462;-74
2022/11/10 04:53:28;;;;;;;23.00;7.37;;;9.30;99.90;;;;;;5123513;27;20503;-74
2022/11/10 04:55:54;;;;;;;24.02;7.25;;;9.30;99.90;;;;;;5114094;27;20941;-74
2022/11/10 04:58:19;;;;;;;23.00;7.17;;;9.30;99.90;;;;;;5113886;27;20399;-75
2022/11/10 05:00:45;;;;;;;24.42;7.07;;;9.40;99.90;;;;;;5129909;27;20977;-74
2022/11/10 05:03:11;;;;;;;25.97;7.57;;;9.40;99.90;;;;;;5105041;28;20436;-74
2022/11/10 05:05:37;;;;;;;25.40;7.70;;;9.40;99.90;;;;;;5121921;27;20883;-74
2022/11/10 05:08:04;;;;;;;26.47;7.63;;;9.50;99.90;;;;;;5107260;28;20406;-74
2022/11/10 05:10:29;;;;;;;24.77;8.07;;;9.50;99.90;;;;;;5110522;27;20505;-74
2022/11/10 05:12:56;;;;;;;28.07;8.37;;;9.50;99.90;;;;;;5110943;27;20489;-74
2022/11/10 05:15:22;;;;;;;27.55;8.07;;;9.50;99.90;;;;;;5107204;28;20893;-74
2022/11/10 05:17:53;;;;;;;25.27;7.75;;;9.50;99.90;;;;;;5104277;28;20469;-74
2022/11/10 05:20:21;;;;;;;23.25;7.85;;;9.50;99.90;;;;;;5088930;28;20499;-74
2022/11/10 05:25:34;;;;;;;23.65;7.63;;;9.60;99.90;;;;;;5129097;27;20406;-74
2022/11/10 05:28:00;;;;;;;32.67;8.30;;;9.60;99.90;;;;;;5106983;28;20886;-74
2022/11/10 05:30:26;;;;;;;22.77;7.95;;;9.60;99.90;;;;;;5090330;28;20428;-74
2022/11/10 05:32:52;;;;;;;25.10;7.80;;;9.60;99.90;;;;;;5109256;28;20403;-74
2022/11/10 05:35:17;;;;;;;27.57;8.60;;;9.60;99.90;;;;;;5094757;28;20400;-74
2022/11/10 05:37:43;;;;;;;30.00;7.72;;;9.60;99.90;;;;;;5108804;28;20509;-75
2022/11/10 05:40:09;;;;;;;28.13;7.83;;;9.60;99.90;;;;;;5096681;28;20396;-74
2022/11/10 05:42:42;;;;;;;24.67;8.20;;;9.60;99.90;;;;;;5087494;28;20398;-74
2022/11/10 05:45:08;;;;;;;26.85;8.65;;;9.60;99.90;;;;;;5104856;28;20398;-74
2022/11/10 05:47:36;;;;;;;29.17;8.25;;;9.60;99.90;;;;;;5099461;28;20467;-74
2022/11/10 05:50:01;;;;;;;27.92;8.25;;;9.60;99.90;;;;;;5111788;28;20452;-74
2022/11/10 05:52:27;;;;;;;22.67;8.07;;;9.60;99.90;;;;;;5099915;28;20887;-74
2022/11/10 05:54:54;;;;;;;25.60;7.70;;;9.60;99.90;;;;;;5109205;28;20487;-74
2022/11/10 05:57:20;;;;;;;25.60;7.70;;;9.60;99.90;;;;;;5100923;28;20405;-74
2022/11/10 05:59:46;;;;;;;25.88;7.55;;;9.70;99.90;;;;;;5098173;28;20400;-74
2022/11/10 06:02:11;;;;;;;23.10;7.10;;;9.60;99.90;;;;;;5100755;28;20406;-74
2022/11/10 06:04:37;;;;;;;25.02;7.10;;;9.60;99.90;;;;;;5107535;28;20411;-74
2022/11/10 06:07:03;;;;;;;27.35;6.70;;;9.70;99.90;;;;;;5111120;28;20487;-74
2022/11/10 06:09:28;;;;;;;25.13;7.07;;;9.70;99.90;;;;;;5106821;28;20772;-74
2022/11/10 06:11:54;;;;;;;26.55;6.93;;;9.60;99.90;;;;;;5096735;28;20437;-74
2022/11/10 06:14:20;;;;;;;24.13;6.50;;;9.60;99.90;;;;;;5101564;28;21176;-74
2022/11/10 06:16:45;;;;;;;24.30;6.67;;;9.60;99.90;;;;;;5100701;28;20414;-74
2022/11/10 06:19:11;;;;;;;29.10;6.60;;;9.60;99.90;;;;;;5104575;28;20401;-74
2022/11/10 06:21:37;;;;;;;22.90;6.40;;;9.60;99.90;;;;;;5092990;28;20408;-74
2022/11/10 06:24:03;;;;;;;30.67;6.55;;;9.60;99.90;;;;;;5096985;28;20408;-74
2022/11/10 06:26:28;;;;;;;26.30;6.18;;;9.60;99.90;;;;;;5092438;28;20428;-74
2022/11/10 06:28:54;;;;;;;26.63;6.17;;;9.60;99.90;;;;;;5111815;28;20428;-74
2022/11/10 06:31:20;;;;;;;24.95;6.15;;;9.50;99.90;;;;;;5109558;28;20505;-74
2022/11/10 06:33:45;;;;;;;28.37;6.20;;;9.60;99.90;;;;;;5109670;28;20392;-74
2022/11/10 06:36:11;;;;;;;23.05;5.63;;;9.60;99.90;;;;;;5100668;28;20456;-74
2022/11/10 06:38:37;;;;;;;27.25;5.78;;;9.60;99.90;;;;;;5094593;28;20404;-74
2022/11/10 06:41:02;;;;;;;21.37;6.00;;;9.60;99.90;;;;;;5111986;28;20408;-74
2022/11/10 06:43:28;;;;;;;24.23;5.75;;;9.60;99.90;;;;;;5113331;28;20407;-74
2022/11/10 06:45:53;;;;;;;27.03;5.40;;;9.60;99.90;;;;;;5121306;28;20491;-74
2022/11/10 06:48:19;;;;;;;26.00;5.85;;;9.60;99.90;;;;;;5097806;28;20403;-74
2022/11/10 06:50:45;;;;;;;20.20;5.55;;;9.60;99.90;;;;;;5131081;28;20810;-74
2022/11/10 06:53:12;;;;;;;23.60;5.63;;;9.60;99.90;;;;;;5130337;28;20927;-74
2022/11/10 06:55:38;;;;;;;25.70;5.47;;;9.60;99.90;;;;;;5130189;28;20493;-74
2022/11/10 06:58:03;;;;;;;28.40;5.90;;;9.60;99.90;;;;;;5111860;27;20478;-74
2022/11/10 07:00:30;;;;;;;22.17;4.83;;;9.70;99.90;;;;;;5089637;28;20408;-74
2022/11/10 07:03:06;;;;;;;24.13;5.47;;;9.70;99.90;;;;;;5126351;28;20501;-75
2022/11/10 07:05:34;;;;;;;27.00;5.05;;;9.70;99.90;;;;;;5121600;28;20407;-74
2022/11/10 07:08:07;;;;;;;23.15;5.57;;;9.80;99.90;;;;;;5129961;28;20402;-74
2022/11/10 07:10:34;;;;;;;25.50;5.15;;;9.80;99.90;;;;;;5099535;28;20452;-74
2022/11/10 07:13:01;;;;;;;20.75;4.90;;;9.80;99.90;;;;;;5128511;28;21070;-75
2022/11/10 07:15:27;;;;;;;26.00;5.87;;;9.90;99.90;;;;;;5126627;28;20437;-75
2022/11/10 07:17:54;;;;;;;24.23;4.97;;;9.90;99.90;;;;;;5107954;28;20938;-74
2022/11/10 07:20:19;;;;;;;23.63;5.63;;;9.90;99.90;;;;;;5122744;28;20784;-74
2022/11/10 07:22:45;;;;;;;19.45;4.95;;;10.00;99.90;;;;;;5128956;28;20394;-73
2022/11/10 07:25:11;;;;;;;22.73;4.77;;;10.00;99.90;;;;;;5128981;28;20792;-74
2022/11/10 07:27:36;;;;;;;25.45;5.03;;;10.00;99.90;;;;;;5127202;28;20415;-74
2022/11/10 07:30:03;;;;;;;23.13;5.27;;;10.10;99.90;;;;;;5120274;28;20421;-74
2022/11/10 07:32:29;;;;;;;26.73;5.22;;;10.10;99.90;;;;;;5123724;28;20493;-74
2022/11/10 07:34:54;;;;;;;25.60;6.05;;;10.20;99.90;;;;;;5103568;28;20554;-74
2022/11/10 07:37:20;;;;;;;25.33;5.63;;;10.20;99.90;;;;;;5127379;28;20489;-74
2022/11/10 07:39:45;;;;;;;28.05;5.90;;;10.20;99.90;;;;;;5026452;28;1770582;-74
2022/11/10 07:42:11;;;;;;;27.87;5.40;;;10.20;99.90;;;;;;5102700;27;20497;-74
2022/11/10 07:44:37;;;;;;;21.65;4.95;;;10.30;99.90;;;;;;5111078;27;20446;-74
2022/11/10 07:47:02;;;;;;;23.43;5.00;;;10.30;99.90;;;;;;5129366;27;20415;-74
2022/11/10 07:49:28;;;;;;;23.85;5.00;;;10.30;99.90;;;;;;5111069;27;20825;-75
2022/11/10 07:51:54;;;;;;;22.67;5.20;;;10.30;99.90;;;;;;5128329;27;20505;-74
2022/11/10 07:54:20;;;;;;;27.23;6.05;;;10.30;99.90;;;;;;5099654;28;20828;-74
2022/11/10 07:56:45;;;;;;;23.80;5.25;;;10.40;99.90;;;;;;5124126;27;20452;-74
2022/11/10 07:59:11;;;;;;;22.13;5.40;;;10.40;99.90;;;;;;5128669;27;20441;-74
2022/11/10 08:01:36;;;;;;;23.45;4.88;;;10.40;99.90;;;;;;5127131;27;20459;-74
2022/11/10 08:04:02;;;;;;;25.10;5.07;;;10.40;99.90;;;;;;5108218;27;20410;-74
2022/11/10 08:06:28;;;;;;;25.23;5.83;;;10.40;99.90;;;;;;5089602;27;20430;-74
2022/11/10 08:08:53;;;;;;;24.77;5.97;;;10.40;99.90;;;;;;5108637;27;20427;-74
2022/11/10 08:11:19;;;;;;;22.03;5.30;;;10.40;99.90;;;;;;5105206;28;20451;-74
2022/11/10 08:13:45;;;;;;;21.63;5.25;;;10.40;99.90;;;;;;5120293;27;20399;-74
2022/11/10 08:16:10;;;;;;;23.30;5.83;;;10.50;99.90;;;;;;5130281;27;20418;-74
2022/11/10 08:18:36;;;;;;;24.90;6.30;;;10.40;99.90;;;;;;5087717;28;20975;-74
2022/11/10 08:21:03;;;;;;;24.27;6.00;;;10.40;99.90;;;;;;5128526;27;20456;-74
2022/11/10 08:23:28;;;;;;;27.63;6.10;;;10.40;99.90;;;;;;5127321;27;20501;-74
2022/11/10 08:25:58;;;;;;;24.00;6.07;;;10.40;99.90;;;;;;5107847;28;20492;-75
2022/11/10 08:28:25;;;;;;;27.58;6.30;;;10.40;99.90;;;;;;5109665;27;20464;-74
2022/11/10 08:30:51;;;;;;;26.77;6.00;;;10.30;99.90;;;;;;5109738;27;21342;-74
2022/11/10 08:33:18;;;;;;;22.85;6.15;;;10.30;99.90;;;;;;5106544;27;20422;-74
2022/11/10 08:35:46;;;;;;;21.77;5.75;;;10.30;99.90;;;;;;5106184;28;20454;-74
2022/11/10 08:38:18;;;;;;;22.35;6.20;;;10.30;99.90;;;;;;5114028;27;20897;-74
2022/11/10 08:40:45;;;;;;;25.80;6.30;;;10.30;99.90;;;;;;5127088;27;20426;-74
2022/11/10 08:43:12;;;;;;;26.25;6.72;;;10.40;99.90;;;;;;5109766;27;20476;-74
2022/11/10 08:45:40;;;;;;;26.48;6.25;;;10.40;99.90;;;;;;5126256;27;20415;-74
2022/11/10 08:48:07;;;;;;;22.80;5.65;;;10.60;99.90;;;;;;5109143;27;20459;-74
2022/11/10 08:50:32;;;;;;;20.30;5.63;;;10.60;99.90;;;;;;5097537;28;20427;-74
2022/11/10 08:53:09;;;;;;;26.55;5.70;;;10.70;99.90;;;;;;5107237;28;20428;-74
2022/11/10 08:55:34;;;;;;;27.80;6.50;;;10.70;99.90;;;;;;5105094;27;20426;-74
2022/11/10 08:58:02;;;;;;;25.05;5.22;;;10.80;99.90;;;;;;5108504;27;20426;-74
2022/11/10 09:00:29;;;;;;;25.50;5.55;;;10.80;99.90;;;;;;5120571;27;20412;-74
2022/11/10 09:03:02;;;;;;;20.87;5.30;;;10.90;99.90;;;;;;5102049;27;20430;-75
2022/11/10 09:05:27;;;;;;;19.77;5.22;;;10.80;99.90;;;;;;5119586;27;20806;-74
2022/11/10 09:07:53;;;;;;;25.17;5.87;;;10.90;99.90;;;;;;5125614;27;20462;-74
2022/11/10 09:10:18;;;;;;;25.55;6.40;;;10.90;99.90;;;;;;5118377;27;20450;-74
2022/11/10 09:12:44;;;;;;;25.80;6.10;;;11.00;99.90;;;;;;5097361;27;20755;-74
2022/11/10 09:15:11;;;;;;;22.35;5.80;;;11.10;99.90;;;;;;5125561;27;20421;-74
2022/11/10 09:17:38;;;;;;;26.35;5.82;;;11.10;99.90;;;;;;5128414;27;20783;-74
2022/11/10 09:20:05;;;;;;;23.58;5.53;;;11.20;99.90;;;;;;5107399;28;20420;-74
2022/11/10 09:22:30;;;;;;;23.13;5.28;;;11.30;99.90;;;;;;5096074;28;20525;-74
2022/11/10 09:24:56;;;;;;;22.45;5.78;;;11.40;99.90;;;;;;5127547;27;20426;-73
2022/11/10 09:27:22;;;;;;;23.52;5.30;;;11.40;99.90;;;;;;5095689;28;20461;-74
2022/11/10 09:29:48;;;;;;;19.90;5.80;;;11.50;99.90;;;;;;5073695;28;20404;-75
2022/11/10 09:32:13;;;;;;;22.33;5.60;;;11.60;99.90;;;;;;5094490;28;20445;-74
2022/11/10 09:34:39;;;;;;;20.87;5.43;;;11.70;99.90;;;;;;5107039;28;20762;-75
2022/11/10 09:37:04;;;;;;;20.05;5.68;;;11.80;99.90;;;;;;5097897;28;20498;-74
2022/11/10 09:39:30;;;;;;;23.23;5.87;;;11.90;99.90;;;;;;5122574;28;20757;-74
2022/11/10 09:41:56;;;;;;;20.58;5.78;;;12.00;99.90;;;;;;5127798;28;20414;-74
2022/11/10 09:44:26;;;;;;;22.53;5.03;;;12.10;99.90;;;;;;5108871;28;20426;-74
2022/11/10 09:47:19;;;;;;;19.65;5.25;;;12.10;99.90;;;;;;5091658;28;20493;-74
2022/11/10 09:49:56;;;;;;;21.85;5.10;;;12.10;99.90;;;;;;5103151;28;20460;-74
2022/11/10 09:52:24;;;;;;;20.35;5.22;;;12.10;99.90;;;;;;5108367;28;20410;-74
2022/11/10 09:55:07;;;;;;;23.05;4.88;;;12.10;99.90;;;;;;5127608;28;20410;-75
2022/11/10 09:57:33;;;;;;;22.17;5.25;;;12.10;99.90;;;;;;5109222;28;20430;-75
2022/11/10 09:59:58;;;;;;;21.35;4.93;;;12.30;99.90;;;;;;5127542;28;20425;-75
2022/11/10 10:02:28;;;;;;;22.20;4.60;;;12.40;99.90;;;;;;5128992;28;20952;-75
2022/11/10 10:05:31;;;;;;;20.50;4.75;;;12.50;99.90;;;;;;5125928;28;20426;-75
2022/11/10 10:07:59;;;;;;;18.30;4.95;;;12.60;99.90;;;;;;5104194;28;20457;-75
2022/11/10 10:10:59;;;;;;;24.88;4.72;;;12.70;99.90;;;;;;5122091;28;20494;-74
2022/11/10 10:13:30;;;;;;;17.07;4.50;;;13.00;99.90;;;;;;5099290;28;20427;-75
2022/11/10 10:16:17;;;;;;;17.60;4.50;;;13.60;99.90;;;;;;5101247;28;20419;-75
2022/11/10 10:18:48;;;;;;;22.23;6.10;;;13.90;99.90;;;;;;5127719;28;20409;-75
2022/11/10 10:21:23;;;;;;;23.15;5.65;;;13.80;99.90;;;;;;5093084;28;20409;-74
2022/11/10 10:23:51;;;;;;;21.10;6.07;;;13.70;99.90;;;;;;5097136;28;20404;-75
2022/11/10 10:26:22;;;;;;;20.70;5.78;;;13.70;99.90;;;;;;5119718;28;20405;-75
2022/11/10 10:28:49;;;;;;;19.05;6.38;;;13.60;99.90;;;;;;5103319;28;20404;-75
2022/11/10 10:31:23;;;;;;;21.58;5.93;;;13.80;99.90;;;;;;5105360;28;20432;-75
2022/11/10 10:33:49;;;;;;;20.10;5.78;;;14.20;99.90;;;;;;5102795;28;20412;-75
2022/11/10 10:36:21;;;;;;;22.88;6.40;;;14.30;99.90;;;;;;5112502;27;20475;-75
2022/11/10 10:38:50;;;;;;;17.48;5.75;;;14.40;99.90;;;;;;5126222;27;20406;-75
2022/11/10 10:41:23;;;;;;;22.05;6.40;;;14.40;99.90;;;;;;5109598;28;20419;-75
2022/11/10 10:43:52;;;;;;;17.88;5.70;;;14.50;99.90;;;;;;5104691;28;20793;-75
2022/11/10 10:46:25;;;;;;;19.30;5.77;;;14.40;99.90;;;;;;5123085;27;20919;-75
2022/11/10 10:49:15;;;;;;;17.42;5.20;;;14.20;99.90;;;;;;5099146;27;20407;-74
2022/11/10 10:51:41;;;;;;;16.77;4.93;;;14.20;99.90;;;;;;5095710;28;20428;-75
2022/11/10 10:54:25;;;;;;;15.83;4.20;;;14.90;99.90;;;;;;5111003;27;20403;-75
2022/11/10 10:57:00;;;;;;;16.83;4.50;;;15.40;99.90;;;;;;5108081;28;20909;-75
2022/11/10 10:59:26;;;;;;;17.65;4.38;;;15.30;99.90;;;;;;5106272;27;20968;-75
2022/11/10 11:01:55;;;;;;;18.45;4.07;;;15.50;99.90;;;;;;5104843;28;20436;-75
2022/11/10 11:04:39;;;;;;;16.77;4.32;;;15.50;99.90;;;;;;5105161;28;20457;-75
2022/11/10 11:07:20;;;;;;;15.88;3.53;;;15.20;99.90;;;;;;5093200;28;20416;-75
2022/11/10 11:09:45;;;;;;;17.95;3.65;;;15.30;99.90;;;;;;5122415;27;20414;-76
2022/11/10 11:12:17;;;;;;;15.35;2.97;;;16.10;99.90;;;;;;5126958;27;20425;-76
2022/11/10 11:14:42;;;;;;;12.10;3.60;;;16.50;99.90;;;;;;5108289;28;20942;-76
2022/11/10 11:17:21;;;;;;;16.10;3.20;;;16.70;99.90;;;;;;5121213;27;20475;-76
2022/11/10 11:19:51;;;;;;;13.98;3.22;;;16.50;99.90;;;;;;5098002;27;20449;-76
2022/11/10 11:22:45;;;;;;;15.00;3.80;;;16.30;99.90;;;;;;5130716;27;20414;-76
2022/11/10 11:25:35;;;;;;;17.10;3.50;;;16.00;99.90;;;;;;5093884;27;21034;-76
2022/11/10 11:28:36;;;;;;;13.67;3.30;;;15.70;99.90;;;;;;5118593;27;20572;-76
2022/11/10 11:31:08;;;;;;;15.25;3.60;;;15.90;99.90;;;;;;5098903;27;20434;-76
2022/11/10 11:33:39;;;;;;;15.70;3.55;;;15.70;99.90;;;;;;5119208;27;20426;-76
2022/11/10 11:36:22;;;;;;;18.48;4.30;;;15.60;99.90;;;;;;5118029;27;20626;-74
2022/11/10 11:38:57;;;;;;;15.45;4.00;;;15.50;99.90;;;;;;5123674;27;20499;-76
2022/11/10 11:41:43;;;;;;;15.87;3.80;;;15.20;99.90;;;;;;5085346;27;20431;-76
2022/11/10 11:44:29;;;;;;;16.73;4.13;;;15.10;99.90;;;;;;5098545;27;20934;-76
2022/11/10 11:47:22;;;;;;;21.10;4.85;;;14.90;99.90;;;;;;5121448;27;20503;-75
2022/11/10 11:50:09;;;;;;;17.73;4.55;;;14.80;99.90;;;;;;5098586;27;21451;-76
2022/11/10 11:52:53;;;;;;;17.83;4.85;;;14.70;99.90;;;;;;5103309;27;20813;-76
2022/11/10 11:55:52;;;;;;;17.00;4.60;;;14.60;99.90;;;;;;5101932;27;20455;-76
2022/11/10 11:58:23;;;;;;;15.30;4.32;;;14.60;99.90;;;;;;5103256;27;20456;-75
2022/11/10 12:01:05;;;;;;;19.30;4.32;;;14.50;99.90;;;;;;5098842;27;20436;-76
2022/11/10 12:03:45;;;;;;;23.05;5.38;;;14.50;99.90;;;;;;5098124;27;20780;-76
2022/11/10 12:06:23;;;;;;;16.50;4.28;;;14.40;99.90;;;;;;5099792;27;20422;-76
2022/11/10 12:09:18;;;;;;;16.77;4.22;;;14.40;99.90;;;;;;5102385;27;21335;-76
2022/11/10 12:12:01;;;;;;;19.50;4.70;;;14.30;99.90;;;;;;5121393;27;20802;-76
2022/11/10 12:14:45;;;;;;;23.10;5.50;;;14.30;99.90;;;;;;5116543;27;20422;-76
2022/11/10 12:17:46;;;;;;;20.20;4.75;;;14.20;99.90;;;;;;5117544;27;20449;-76
2022/11/10 12:20:31;;;;;;;19.58;4.68;;;14.20;99.90;;;;;;5109083;27;20453;-76
2022/11/10 12:23:15;;;;;;;15.13;4.20;;;14.10;99.90;;;;;;5099478;27;20415;-76
2022/11/10 12:25:54;;;;;;;17.73;4.18;;;14.10;99.90;;;;;;5105330;27;20424;-76
2022/11/10 12:28:25;;;;;;;17.10;3.70;;;14.20;99.90;;;;;;5119122;27;20403;-77
2022/11/10 12:30:57;;;;;;;18.30;4.15;;;14.20;99.90;;;;;;5109492;27;20428;-76
2022/11/10 12:33:44;;;;;;;17.58;3.53;;;14.20;99.90;;;;;;5081836;27;20416;-76
2022/11/10 12:36:16;;;;;;;15.07;3.73;;;14.20;99.90;;;;;;5122728;27;20408;-76
2022/11/10 12:38:56;;;;;;;17.10;3.70;;;14.20;99.90;;;;;;5105075;28;20414;-75
2022/11/10 12:41:25;;;;;;;16.27;3.70;;;14.20;99.90;;;;;;5128520;27;20904;-76
2022/11/10 12:43:57;;;;;;;15.77;3.40;;;14.20;99.90;;;;;;5085566;28;20432;-76
2022/11/10 12:46:22;;;;;;;20.40;4.03;;;14.10;99.90;;;;;;5081921;28;20419;-76
2022/11/10 12:49:00;;;;;;;18.43;3.47;;;14.10;99.90;;;;;;5108001;28;20404;-76
2022/11/10 12:51:44;;;;;;;18.52;3.50;;;14.00;99.90;;;;;;5083010;27;20432;-76
2022/11/10 12:54:13;;;;;;;16.90;3.65;;;13.90;99.90;;;;;;5108739;28;20758;-76
2022/11/10 12:56:46;;;;;;;16.23;3.53;;;13.90;99.90;;;;;;5113566;27;20454;-76
2022/11/10 12:59:19;;;;;;;17.33;3.40;;;13.80;99.90;;;;;;5129584;27;20410;-76
2022/11/10 13:01:47;;;;;;;15.13;3.85;;;13.80;99.90;;;;;;5126993;27;20406;-76
2022/11/10 13:04:15;;;;;;;16.35;3.50;;;13.80;99.90;;;;;;5102434;27;20407;-76
2022/11/10 13:06:54;;;;;;;17.30;3.40;;;13.70;99.90;;;;;;5108080;27;20444;-76
2022/11/10 13:09:49;;;;;;;17.58;3.15;;;13.70;99.90;;;;;;5106349;28;20956;-77
2022/11/10 13:12:20;;;;;;;15.48;3.13;;;13.70;99.90;;;;;;5105646;27;20513;-76